Time;durP1;ratioP1;P1;durP2;ratioP2;P2;SDS_P1;SDS_P2;PMS_P1;PMS_P2;Temp;Humidity;BMP_temperature;BMP_pressure;BME280_temperature;BME280_humidity;BME280_pressure;Samples;Min_cycle;Max_cycle;Signal;HPM_P1;HPM_P2
2022/04/20 00:02:04;;;;;;;9.13;2.13;;;8.50;68.80;;;;;;5113980;28;20031;-45
2022/04/20 00:04:30;;;;;;;4.80;1.75;;;8.60;68.30;;;;;;5095517;28;20044;-48
2022/04/20 00:06:57;;;;;;;4.90;1.83;;;8.60;68.30;;;;;;5112656;28;20349;-46
2022/04/20 00:09:22;;;;;;;4.30;2.22;;;8.60;67.70;;;;;;5113387;28;20028;-46
2022/04/20 00:11:53;;;;;;;6.07;1.75;;;8.50;67.30;;;;;;5114327;28;20043;-49
2022/04/20 00:14:23;;;;;;;2.92;1.90;;;8.60;67.60;;;;;;5113837;28;20088;-45
2022/04/20 00:16:48;;;;;;;3.20;1.65;;;8.50;67.20;;;;;;5113469;28;20475;-49
2022/04/20 00:19:15;;;;;;;6.55;2.00;;;8.50;67.00;;;;;;5113056;28;20066;-48
2022/04/20 00:21:42;;;;;;;4.25;1.73;;;8.50;67.00;;;;;;5113647;28;20039;-46
2022/04/20 00:24:11;;;;;;;4.93;2.03;;;8.50;67.20;;;;;;5112932;28;20110;-45
2022/04/20 00:26:38;;;;;;;5.63;2.00;;;8.50;67.70;;;;;;5112646;28;20032;-45
2022/04/20 00:29:04;;;;;;;4.07;2.03;;;8.40;68.20;;;;;;5131510;27;20031;-44
2022/04/20 00:31:31;;;;;;;4.28;1.83;;;8.40;68.60;;;;;;5118537;27;20027;-49
2022/04/20 00:33:58;;;;;;;3.85;1.90;;;8.40;68.50;;;;;;5113174;28;20109;-45
2022/04/20 00:36:25;;;;;;;3.97;2.13;;;8.40;68.60;;;;;;5113524;28;20444;-45
2022/04/20 00:38:53;;;;;;;4.68;2.20;;;8.30;68.90;;;;;;5095528;28;20036;-47
2022/04/20 00:41:18;;;;;;;5.80;2.10;;;8.30;69.50;;;;;;5078231;28;20293;-45
2022/04/20 00:43:46;;;;;;;4.57;2.78;;;8.30;69.30;;;;;;5113468;28;20042;-46
2022/04/20 00:46:12;;;;;;;3.80;1.80;;;8.30;69.60;;;;;;5094346;28;20030;-47
2022/04/20 00:48:43;;;;;;;7.18;2.78;;;8.30;69.40;;;;;;5122422;27;20039;-45
2022/04/20 00:51:10;;;;;;;6.80;2.58;;;8.30;69.30;;;;;;5084838;28;20071;-48
2022/04/20 00:53:38;;;;;;;4.53;2.15;;;8.40;68.70;;;;;;5108726;28;20056;-47
2022/04/20 00:56:05;;;;;;;7.43;2.85;;;8.30;68.60;;;;;;5112733;28;20038;-44
2022/04/20 00:58:37;;;;;;;4.13;2.22;;;8.30;68.50;;;;;;5111894;28;20444;-47
2022/04/20 01:01:04;;;;;;;6.50;2.22;;;8.30;68.80;;;;;;5094573;28;20051;-48
2022/04/20 01:03:31;;;;;;;3.60;1.85;;;8.30;69.10;;;;;;5095461;28;20468;-47
2022/04/20 01:05:58;;;;;;;3.58;2.33;;;8.20;69.20;;;;;;5112639;28;20516;-49
2022/04/20 01:08:28;;;;;;;4.32;2.42;;;8.20;69.40;;;;;;5094159;28;20123;-48
2022/04/20 01:10:57;;;;;;;5.07;2.30;;;8.20;69.60;;;;;;5112316;28;20038;-45
2022/04/20 01:13:25;;;;;;;3.10;2.03;;;8.20;69.70;;;;;;5094344;28;20031;-48
2022/04/20 01:15:53;;;;;;;4.50;2.30;;;8.20;69.50;;;;;;5112793;28;20055;-49
2022/04/20 01:18:22;;;;;;;5.25;2.35;;;8.20;69.40;;;;;;5112753;28;20066;-46
2022/04/20 01:20:51;;;;;;;5.22;2.25;;;8.10;69.40;;;;;;5113761;28;20025;-48
2022/04/20 01:23:20;;;;;;;4.78;2.28;;;8.10;69.30;;;;;;5109083;28;20027;-49
2022/04/20 01:25:45;;;;;;;3.80;2.72;;;8.10;68.90;;;;;;5095361;28;20424;-50
2022/04/20 01:28:12;;;;;;;4.57;2.63;;;8.20;69.30;;;;;;5087999;28;20122;-47
2022/04/20 01:30:42;;;;;;;4.57;2.63;;;8.10;69.70;;;;;;5112947;28;20404;-47
2022/04/20 01:33:10;;;;;;;5.60;2.30;;;8.10;69.80;;;;;;5085011;28;20086;-46
2022/04/20 01:35:36;;;;;;;8.07;2.33;;;8.10;70.00;;;;;;5103370;28;20038;-50
2022/04/20 01:38:05;;;;;;;4.25;2.63;;;8.10;70.20;;;;;;5100373;28;20054;-47
2022/04/20 01:40:33;;;;;;;5.18;2.58;;;8.00;70.40;;;;;;5083053;28;20032;-46
2022/04/20 01:43:01;;;;;;;5.80;2.47;;;8.00;70.60;;;;;;5110390;28;20028;-46
2022/04/20 01:45:28;;;;;;;4.32;2.47;;;8.00;70.80;;;;;;5113059;28;20077;-45
2022/04/20 01:47:57;;;;;;;4.47;2.25;;;7.90;71.30;;;;;;5112263;28;20372;-47
2022/04/20 01:50:23;;;;;;;;;;;7.90;71.00;;;;;;5113813;28;20051;-46
2022/04/20 01:52:53;;;;;;;3.97;2.58;;;7.90;71.30;;;;;;5090680;28;19958;-50
2022/04/20 01:55:21;;;;;;;5.35;2.80;;;7.90;71.30;;;;;;5112873;28;20107;-48
2022/04/20 01:57:49;;;;;;;7.28;3.33;;;7.90;71.30;;;;;;5109544;28;20028;-45
2022/04/20 02:00:16;;;;;;;4.63;2.80;;;7.80;71.40;;;;;;5112065;28;20070;-50
2022/04/20 02:02:42;;;;;;;5.45;2.33;;;7.80;71.70;;;;;;5104756;28;20066;-47
2022/04/20 02:05:14;;;;;;;4.30;2.53;;;7.90;71.90;;;;;;5084380;28;20036;-46
2022/04/20 02:07:41;;;;;;;6.80;2.80;;;7.80;72.10;;;;;;5103183;28;20559;-47
2022/04/20 02:10:08;;;;;;;4.18;2.72;;;7.80;71.90;;;;;;5093615;28;20043;-48
2022/04/20 02:12:35;;;;;;;6.55;3.00;;;7.80;72.10;;;;;;5111253;28;20032;-49
2022/04/20 02:15:09;;;;;;;5.60;2.88;;;7.80;72.40;;;;;;5111834;28;20038;-48
2022/04/20 02:17:37;;;;;;;6.35;2.60;;;7.80;72.60;;;;;;5109274;28;20024;-46
2022/04/20 02:20:04;;;;;;;7.43;3.13;;;7.80;73.10;;;;;;5104045;28;20032;-51
2022/04/20 02:22:30;;;;;;;8.38;3.78;;;7.70;72.90;;;;;;5085979;28;20027;-48
2022/04/20 02:24:59;;;;;;;5.30;3.08;;;7.70;73.00;;;;;;5103798;28;20035;-47
2022/04/20 02:27:32;;;;;;;5.27;3.03;;;7.70;72.90;;;;;;5103677;28;20085;-46
2022/04/20 02:30:01;;;;;;;5.25;2.90;;;7.70;73.20;;;;;;5103078;28;20266;-47
2022/04/20 02:32:27;;;;;;;7.65;2.88;;;7.60;73.20;;;;;;5089928;28;20512;-45
2022/04/20 02:34:53;;;;;;;5.57;2.92;;;7.60;73.60;;;;;;5098050;28;20036;-45
2022/04/20 02:37:19;;;;;;;7.55;3.47;;;7.50;73.50;;;;;;5091093;28;20036;-50
2022/04/20 02:39:46;;;;;;;7.75;3.65;;;7.40;73.80;;;;;;5109317;28;20041;-48
2022/04/20 02:42:31;;;;;;;13.10;2.65;;;7.40;73.80;;;;;;5111313;28;20430;-50
2022/04/20 02:44:58;;;;;;;5.75;3.13;;;7.40;73.80;;;;;;5111791;28;20084;-46
2022/04/20 02:47:26;;;;;;;3.78;2.75;;;7.40;73.60;;;;;;5113829;28;20023;-49
2022/04/20 02:49:53;;;;;;;4.93;2.88;;;7.40;73.70;;;;;;5114172;28;20038;-47
2022/04/20 02:52:22;;;;;;;4.07;2.78;;;7.40;73.80;;;;;;5097602;28;20036;-50
2022/04/20 02:54:50;;;;;;;4.57;2.40;;;7.30;73.70;;;;;;5114898;28;20092;-47
2022/04/20 02:57:18;;;;;;;3.88;2.40;;;7.30;73.70;;;;;;5113075;28;20027;-46
2022/04/20 02:59:47;;;;;;;7.80;2.80;;;7.20;74.00;;;;;;5109763;28;20134;-45
2022/04/20 03:02:14;;;;;;;4.30;2.60;;;7.20;73.90;;;;;;5114813;28;20144;-45
2022/04/20 03:04:42;;;;;;;6.97;2.83;;;7.20;74.00;;;;;;5115056;28;20513;-46
2022/04/20 03:07:13;;;;;;;4.53;2.65;;;7.20;74.00;;;;;;5094099;28;20032;-48
2022/04/20 03:09:40;;;;;;;5.13;3.00;;;7.20;74.00;;;;;;5096884;28;20106;-46
2022/04/20 03:12:10;;;;;;;5.43;2.83;;;7.20;74.00;;;;;;5114784;28;20032;-46
2022/04/20 03:14:35;;;;;;;5.85;3.20;;;7.10;74.20;;;;;;5115819;28;20031;-47
2022/04/20 03:17:05;;;;;;;7.65;2.97;;;7.20;74.30;;;;;;5091941;28;20039;-44
2022/04/20 03:19:37;;;;;;;4.22;2.38;;;7.10;74.30;;;;;;5108395;28;20038;-46
2022/04/20 03:22:03;;;;;;;6.53;2.88;;;7.10;74.20;;;;;;5112810;28;20409;-46
2022/04/20 03:24:32;;;;;;;4.28;2.65;;;7.10;74.20;;;;;;5115244;28;20023;-46
2022/04/20 03:27:00;;;;;;;7.18;2.60;;;7.10;74.30;;;;;;5114716;28;20039;-46
2022/04/20 03:29:26;;;;;;;4.22;2.97;;;7.10;74.50;;;;;;5114675;28;20028;-47
2022/04/20 03:31:54;;;;;;;4.70;3.00;;;7.10;74.70;;;;;;5114877;28;20035;-48
2022/04/20 03:34:20;;;;;;;4.90;2.83;;;7.00;74.70;;;;;;5113934;28;20114;-48
2022/04/20 03:36:47;;;;;;;4.53;2.45;;;7.00;74.60;;;;;;5097813;28;20138;-46
2022/04/20 03:39:14;;;;;;;7.93;3.67;;;7.00;74.40;;;;;;5113485;28;20044;-48
2022/04/20 03:41:41;;;;;;;7.38;3.72;;;7.00;74.20;;;;;;5076872;28;20349;-45
2022/04/20 03:44:08;;;;;;;4.88;2.95;;;7.00;74.50;;;;;;5112181;28;20074;-45
2022/04/20 03:46:34;;;;;;;6.85;3.35;;;7.10;74.40;;;;;;5114409;28;20048;-48
2022/04/20 03:49:03;;;;;;;5.88;3.80;;;7.00;74.50;;;;;;5113417;28;20024;-46
2022/04/20 03:51:32;;;;;;;5.18;4.00;;;7.00;74.90;;;;;;5115626;28;20051;-46
2022/04/20 03:54:00;;;;;;;7.57;4.28;;;7.00;75.00;;;;;;5112789;28;20032;-45
2022/04/20 03:57:03;;;;;;;4.95;3.50;;;7.00;75.00;;;;;;5114184;28;20600;-46
2022/04/20 03:59:13;;;;;;;5.38;3.50;;;7.00;75.20;;;;;;5111266;28;20504;-46
2022/04/20 04:01:42;;;;;;;6.88;4.13;;;7.00;75.80;;;;;;5112898;28;20035;-48
2022/04/20 04:04:12;;;;;;;5.47;3.47;;;7.00;76.00;;;;;;5096101;28;20050;-44
2022/04/20 04:06:39;;;;;;;6.05;4.38;;;7.00;76.00;;;;;;5114189;28;20024;-46
2022/04/20 04:09:06;;;;;;;5.80;3.80;;;7.00;76.00;;;;;;5096824;28;20542;-45
2022/04/20 04:11:34;;;;;;;6.05;4.05;;;7.00;75.90;;;;;;5114175;28;20020;-45
2022/04/20 04:14:02;;;;;;;5.95;3.17;;;7.10;75.70;;;;;;5112913;28;20031;-51
2022/04/20 04:16:28;;;;;;;8.23;3.35;;;7.10;75.60;;;;;;5114185;28;20035;-48
2022/04/20 04:18:54;;;;;;;5.22;3.67;;;7.00;75.30;;;;;;5120212;27;20023;-48
2022/04/20 04:21:21;;;;;;;5.97;3.60;;;7.10;75.10;;;;;;5105502;28;20459;-48
2022/04/20 04:23:48;;;;;;;4.70;3.08;;;7.00;75.10;;;;;;5107797;28;20071;-47
2022/04/20 04:26:13;;;;;;;6.00;3.08;;;7.10;75.00;;;;;;5105614;28;20028;-47
2022/04/20 04:28:40;;;;;;;5.32;3.42;;;7.10;74.50;;;;;;5084864;28;20101;-48
2022/04/20 04:31:08;;;;;;;5.53;2.92;;;7.10;74.30;;;;;;5107490;28;20446;-48
2022/04/20 04:33:35;;;;;;;5.32;3.30;;;7.10;73.90;;;;;;5106700;28;20016;-50
2022/04/20 04:36:02;;;;;;;4.57;2.85;;;7.10;73.70;;;;;;5105445;28;20032;-49
2022/04/20 04:38:30;;;;;;;6.97;3.30;;;7.10;73.70;;;;;;5090346;28;20463;-48
2022/04/20 04:40:59;;;;;;;5.20;3.10;;;7.10;73.60;;;;;;5088100;28;20036;-45
2022/04/20 04:43:26;;;;;;;6.95;2.97;;;7.10;73.80;;;;;;5103641;28;20028;-45
2022/04/20 04:48:48;;;;;;;5.40;2.78;;;7.10;73.90;;;;;;5107019;28;20035;-49
2022/04/20 04:51:18;;;;;;;5.43;3.03;;;7.20;73.90;;;;;;5110069;28;20096;-46
2022/04/20 04:53:44;;;;;;;5.35;2.78;;;7.20;73.80;;;;;;5105750;28;20289;-47
2022/04/20 04:56:10;;;;;;;4.43;2.80;;;7.20;73.80;;;;;;5090895;28;20387;-48
2022/04/20 04:58:37;;;;;;;5.57;2.88;;;7.20;73.80;;;;;;5104693;28;20062;-45
2022/04/20 05:01:03;;;;;;;5.18;2.75;;;7.20;74.10;;;;;;5107747;28;20024;-47
2022/04/20 05:03:33;;;;;;;6.32;2.70;;;7.30;74.10;;;;;;5101716;28;20392;-46
2022/04/20 05:05:59;;;;;;;9.88;3.13;;;7.30;74.00;;;;;;5093874;28;20065;-47
2022/04/20 05:08:26;;;;;;;4.57;3.00;;;7.30;73.70;;;;;;5074026;28;20020;-48
2022/04/20 05:10:52;;;;;;;5.90;2.83;;;7.30;73.70;;;;;;5055593;28;20039;-48
2022/04/20 05:13:19;;;;;;;4.53;2.45;;;7.40;73.60;;;;;;5083214;28;20039;-45
2022/04/20 05:15:46;;;;;;;5.50;3.17;;;7.40;73.40;;;;;;5104692;28;20047;-46
2022/04/20 05:18:14;;;;;;;6.30;2.88;;;7.50;73.40;;;;;;5092932;28;20476;-48
2022/04/20 05:20:44;;;;;;;5.72;2.75;;;7.60;73.00;;;;;;5099705;28;20044;-49
2022/04/20 05:23:10;;;;;;;;;;;7.70;72.70;;;;;;5090733;28;20024;-52
2022/04/20 05:25:39;;;;;;;6.78;2.50;;;7.90;72.60;;;;;;5088083;28;19988;-50
2022/04/20 05:28:06;;;;;;;4.53;2.47;;;7.90;72.80;;;;;;5076215;28;20058;-45
2022/04/20 05:30:36;;;;;;;9.18;3.15;;;8.10;72.60;;;;;;5092848;28;20385;-47
2022/04/20 05:33:06;;;;;;;4.50;2.47;;;8.10;72.30;;;;;;5093082;28;20029;-47
2022/04/20 05:35:33;;;;;;;4.88;2.53;;;8.30;72.10;;;;;;5092928;28;20440;-45
2022/04/20 05:43:34;;;;;;;3.95;2.42;;;8.50;70.30;;;;;;5112440;28;20486;-47
2022/04/20 05:46:01;;;;;;;7.55;3.15;;;8.50;70.10;;;;;;5112026;28;20046;-47
2022/04/20 05:48:29;;;;;;;12.40;4.03;;;8.70;69.60;;;;;;5092666;28;20471;-47
2022/04/20 05:50:55;;;;;;;8.15;2.83;;;8.80;69.10;;;;;;5089635;28;20372;-48
2022/04/20 05:53:24;;;;;;;54.28;10.23;;;8.90;68.70;;;;;;5094230;28;20149;-50
2022/04/20 05:55:51;;;;;;;12.02;2.92;;;9.00;68.40;;;;;;5094423;28;20024;-45
2022/04/20 05:58:20;;;;;;;46.78;7.05;;;9.10;68.10;;;;;;5111947;28;20055;-47
2022/04/20 06:00:46;;;;;;;40.88;6.75;;;9.20;67.20;;;;;;5096019;28;20034;-48
2022/04/20 06:03:14;;;;;;;17.95;4.13;;;9.40;66.10;;;;;;5113839;28;20042;-49
2022/04/20 06:05:42;;;;;;;4.53;2.90;;;9.40;64.90;;;;;;5106601;28;20417;-51
2022/04/20 06:08:10;;;;;;;8.05;2.83;;;9.40;64.00;;;;;;5106637;28;20020;-47
2022/04/20 06:10:37;;;;;;;4.05;2.08;;;9.50;65.00;;;;;;5109362;28;20038;-47
2022/04/20 06:13:03;;;;;;;5.32;2.50;;;9.70;66.00;;;;;;5111916;28;20428;-45
2022/04/20 06:15:30;;;;;;;5.25;2.33;;;9.70;64.50;;;;;;5094411;28;20035;-48
2022/04/20 06:17:58;;;;;;;5.50;2.60;;;9.70;64.60;;;;;;5112022;28;20031;-47
2022/04/20 06:20:24;;;;;;;4.90;2.20;;;9.70;63.90;;;;;;5101953;28;20023;-47
2022/04/20 06:22:52;;;;;;;6.93;2.65;;;9.80;64.80;;;;;;5115755;28;20027;-50
2022/04/20 06:25:18;;;;;;;6.07;2.70;;;9.90;65.80;;;;;;5114898;28;20036;-47
2022/04/20 06:27:45;;;;;;;3.90;1.85;;;9.80;64.80;;;;;;5115290;28;20031;-50
2022/04/20 06:30:12;;;;;;;4.18;2.90;;;9.90;65.10;;;;;;5114231;28;20098;-46
2022/04/20 06:32:39;;;;;;;4.75;2.80;;;9.90;64.80;;;;;;5100604;28;20035;-48
2022/04/20 06:35:06;;;;;;;4.28;2.70;;;9.90;63.90;;;;;;5111711;28;20063;-45
2022/04/20 06:37:33;;;;;;;4.93;2.42;;;9.90;63.80;;;;;;5090396;28;20024;-45
2022/04/20 06:40:00;;;;;;;4.75;2.50;;;9.90;64.10;;;;;;5116101;28;20092;-47
2022/04/20 06:42:28;;;;;;;4.22;2.17;;;10.00;62.90;;;;;;5114988;28;20046;-46
2022/04/20 06:44:54;;;;;;;4.50;2.35;;;10.00;62.00;;;;;;5110240;28;20103;-47
2022/04/20 06:47:21;;;;;;;4.20;2.78;;;10.10;61.90;;;;;;5115188;28;20036;-50
2022/04/20 06:49:46;;;;;;;6.47;2.42;;;10.10;61.60;;;;;;5114601;28;20031;-51
2022/04/20 07:00:44;;;;;;;5.50;1.90;;;10.20;61.30;;;;;;5103144;27;20078;-46
2022/04/20 07:03:11;;;;;;;4.03;2.30;;;10.20;61.50;;;;;;5108455;27;20055;-51
2022/04/20 07:05:37;;;;;;;5.05;2.60;;;10.20;61.90;;;;;;5055719;28;20063;-50
2022/04/20 07:08:07;;;;;;;4.95;2.83;;;10.20;61.00;;;;;;5045589;28;20044;-47
2022/04/20 07:10:34;;;;;;;3.97;2.50;;;10.30;63.10;;;;;;5076929;28;20072;-46
2022/04/20 07:12:59;;;;;;;3.63;1.90;;;10.40;62.40;;;;;;5073781;28;20490;-48
2022/04/20 07:15:28;;;;;;;4.50;1.95;;;10.50;61.70;;;;;;5072474;28;20032;-46
2022/04/20 07:17:56;;;;;;;6.35;2.80;;;10.50;61.00;;;;;;5055114;28;20413;-46
2022/04/20 07:20:22;;;;;;;4.75;2.55;;;10.60;60.20;;;;;;5072047;28;20489;-49
2022/04/20 07:22:53;;;;;;;4.60;3.33;;;10.80;59.90;;;;;;5055213;28;20040;-46
2022/04/20 07:25:25;;;;;;;5.47;3.05;;;10.80;59.50;;;;;;5072992;28;20028;-46
2022/04/20 07:27:52;;;;;;;4.53;2.70;;;10.80;59.70;;;;;;5076122;28;20028;-50
2022/04/20 07:30:29;;;;;;;4.90;3.03;;;10.90;59.80;;;;;;5085260;28;20025;-48
2022/04/20 07:32:57;;;;;;;5.28;3.30;;;11.00;57.30;;;;;;5082804;28;20036;-47
2022/04/20 07:35:26;;;;;;;6.63;3.00;;;11.20;57.30;;;;;;5073417;28;20043;-49
2022/04/20 07:37:55;;;;;;;9.77;4.40;;;11.50;56.50;;;;;;5079951;28;20066;-47
2022/04/20 07:40:23;;;;;;;6.53;3.75;;;11.90;56.40;;;;;;5057647;28;20032;-49
2022/04/20 07:42:54;;;;;;;7.55;4.57;;;12.10;54.90;;;;;;5057241;28;20047;-48
2022/04/20 07:45:25;;;;;;;18.73;6.50;;;12.40;54.10;;;;;;5056205;28;20043;-50
2022/04/20 07:47:54;;;;;;;10.15;3.22;;;12.80;53.00;;;;;;5091135;28;20027;-51
2022/04/20 07:50:23;;;;;;;6.40;3.75;;;13.30;50.50;;;;;;5071696;28;20357;-50
2022/04/20 07:52:54;;;;;;;8.68;4.10;;;13.50;50.60;;;;;;5072461;28;20051;-48
2022/04/20 07:55:29;;;;;;;5.18;3.45;;;13.90;48.20;;;;;;5073320;28;20082;-48
2022/04/20 07:58:03;;;;;;;4.90;3.30;;;14.10;48.20;;;;;;5054456;28;20055;-50
2022/04/20 08:00:30;;;;;;;5.32;3.30;;;14.10;46.90;;;;;;5075375;28;20077;-49
2022/04/20 08:03:08;;;;;;;4.47;3.25;;;14.40;44.90;;;;;;5087548;28;20060;-53
2022/04/20 08:05:35;;;;;;;5.47;3.35;;;14.70;45.80;;;;;;5111547;27;20051;-47
2022/04/20 08:08:02;;;;;;;5.15;3.30;;;14.90;44.80;;;;;;5121179;27;20020;-51
2022/04/20 08:10:29;;;;;;;6.28;3.63;;;15.40;45.20;;;;;;5129111;27;20413;-50
2022/04/20 08:12:56;;;;;;;5.32;3.67;;;15.90;43.20;;;;;;5123412;27;20023;-48
2022/04/20 08:15:22;;;;;;;5.72;3.47;;;16.10;43.80;;;;;;5115320;27;20023;-49
2022/04/20 08:17:50;;;;;;;6.60;3.47;;;16.10;42.60;;;;;;5082691;27;20032;-49
2022/04/20 08:20:17;;;;;;;4.78;3.40;;;16.20;42.80;;;;;;5088400;28;20038;-51
2022/04/20 08:22:46;;;;;;;7.65;4.10;;;16.20;41.70;;;;;;5114170;27;20028;-50
2022/04/20 08:25:13;;;;;;;6.40;3.70;;;16.60;41.90;;;;;;5093464;28;20024;-51
2022/04/20 08:27:43;;;;;;;5.45;3.50;;;16.60;41.20;;;;;;5089573;28;20049;-51
2022/04/20 08:30:10;;;;;;;5.20;3.80;;;16.80;40.20;;;;;;5121610;27;20448;-49
2022/04/20 08:32:38;;;;;;;5.45;3.75;;;16.90;40.80;;;;;;5092730;28;20046;-48
2022/04/20 08:35:06;;;;;;;6.75;4.00;;;16.80;40.50;;;;;;5112849;27;20171;-48
2022/04/20 08:37:33;;;;;;;6.07;4.07;;;17.00;41.70;;;;;;5093254;28;20031;-52
2022/04/20 08:40:00;;;;;;;8.68;4.15;;;17.00;40.30;;;;;;5084682;27;20031;-48
2022/04/20 08:42:30;;;;;;;5.78;4.38;;;17.00;41.10;;;;;;5109407;27;20487;-48
2022/04/20 08:45:02;;;;;;;8.45;4.55;;;16.50;41.00;;;;;;5083617;28;20052;-50
2022/04/20 08:47:36;;;;;;;4.75;3.78;;;16.80;43.10;;;;;;5123626;27;20106;-48
2022/04/20 08:50:10;;;;;;;5.18;3.75;;;16.80;43.00;;;;;;5093604;28;20027;-50
2022/04/20 08:52:37;;;;;;;6.25;3.78;;;17.00;43.20;;;;;;5070881;28;20036;-51
2022/04/20 08:55:13;;;;;;;5.50;3.90;;;17.40;44.40;;;;;;5091647;28;20039;-50
2022/04/20 08:57:44;;;;;;;6.20;3.83;;;17.60;39.70;;;;;;5113163;27;20038;-46
2022/04/20 09:00:20;;;;;;;6.45;4.30;;;17.70;41.20;;;;;;5109279;27;20031;-48
2022/04/20 09:03:03;;;;;;;7.25;5.10;;;17.80;40.00;;;;;;5101451;28;20032;-47
2022/04/20 09:05:33;;;;;;;5.82;4.53;;;17.60;38.10;;;;;;5087836;28;20070;-46
2022/04/20 09:08:12;;;;;;;5.88;4.70;;;16.90;40.40;;;;;;5070218;28;20028;-51
2022/04/20 09:10:40;;;;;;;6.15;4.78;;;17.00;41.10;;;;;;5088957;28;20109;-46
2022/04/20 09:13:11;;;;;;;5.03;4.20;;;16.90;40.40;;;;;;5086760;28;20032;-49
2022/04/20 09:15:40;;;;;;;6.93;5.07;;;16.50;42.30;;;;;;5077234;28;20031;-46
2022/04/20 09:18:09;;;;;;;6.07;4.85;;;16.60;42.10;;;;;;5071972;28;20043;-46
2022/04/20 09:20:35;;;;;;;7.53;4.82;;;16.50;40.60;;;;;;5072295;28;20165;-49
2022/04/20 09:23:13;;;;;;;6.00;4.57;;;16.40;41.40;;;;;;5079654;28;20043;-51
2022/04/20 09:25:49;;;;;;;7.25;4.50;;;16.20;43.30;;;;;;5069746;28;20048;-48
2022/04/20 09:28:16;;;;;;;6.28;4.35;;;16.10;42.30;;;;;;5094012;28;20038;-50
2022/04/20 09:30:43;;;;;;;6.32;4.60;;;16.00;41.50;;;;;;5071415;28;20028;-50
2022/04/20 09:33:15;;;;;;;4.82;4.18;;;15.70;41.90;;;;;;5085778;28;20098;-49
2022/04/20 09:35:45;;;;;;;9.25;5.18;;;16.20;42.70;;;;;;5085827;28;20444;-46
2022/04/20 09:38:16;;;;;;;7.35;3.95;;;16.40;42.10;;;;;;5088715;28;20032;-49
2022/04/20 09:40:46;;;;;;;5.63;4.07;;;16.50;41.30;;;;;;5059658;28;20130;-46
2022/04/20 09:43:19;;;;;;;8.40;4.75;;;16.60;42.20;;;;;;5094879;28;20036;-45
2022/04/20 09:49:10;;;;;;;5.75;4.57;;;16.50;42.80;;;;;;5090555;28;20447;-49
2022/04/20 09:51:49;;;;;;;7.40;3.65;;;16.60;40.80;;;;;;5087985;28;20066;-49
2022/04/20 09:54:36;;;;;;;6.13;4.40;;;16.60;40.70;;;;;;5073022;28;20019;-50
2022/04/20 09:57:13;;;;;;;9.68;5.22;;;16.40;40.70;;;;;;5088175;28;20043;-46
2022/04/20 10:00:03;;;;;;;7.45;4.53;;;16.40;39.00;;;;;;5076648;28;20082;-49
2022/04/20 10:02:29;;;;;;;;;;;16.40;40.40;;;;;;5088934;28;20028;-47
2022/04/20 10:04:57;;;;;;;8.18;3.58;;;16.50;40.20;;;;;;5068738;28;19955;-45
2022/04/20 10:07:23;;;;;;;8.02;3.95;;;16.50;40.20;;;;;;5082795;28;20026;-50
2022/04/20 10:09:50;;;;;;;8.57;4.28;;;16.50;40.70;;;;;;5090728;28;20024;-50
2022/04/20 10:12:18;;;;;;;10.90;4.22;;;16.50;42.50;;;;;;5074116;28;20628;-48
2022/04/20 10:17:49;;;;;;;5.00;3.90;;;16.80;42.50;;;;;;5091956;28;20101;-46
2022/04/20 10:20:20;;;;;;;5.95;3.65;;;16.90;41.90;;;;;;5055547;28;20097;-46
2022/04/20 10:22:47;;;;;;;9.65;4.18;;;16.80;43.40;;;;;;5090948;28;20096;-46
2022/04/20 10:25:15;;;;;;;5.40;3.35;;;16.50;45.70;;;;;;5045482;28;20036;-49
2022/04/20 10:28:03;;;;;;;4.95;3.35;;;16.60;45.70;;;;;;5087178;28;20082;-46
2022/04/20 10:31:01;;;;;;;4.47;3.42;;;16.60;45.10;;;;;;5088828;28;20029;-51
2022/04/20 10:33:31;;;;;;;6.88;3.53;;;16.80;46.60;;;;;;5089157;28;20108;-45
2022/04/20 10:35:59;;;;;;;5.22;3.50;;;16.90;46.20;;;;;;5090041;28;20099;-48
2022/04/20 10:38:30;;;;;;;7.22;4.35;;;17.10;43.70;;;;;;5088160;28;20360;-53
2022/04/20 10:41:18;;;;;;;6.32;3.85;;;16.80;44.90;;;;;;5057873;28;20028;-48
2022/04/20 10:43:46;;;;;;;6.07;3.60;;;16.80;44.20;;;;;;5090804;28;20081;-46
2022/04/20 10:46:33;;;;;;;6.28;3.60;;;16.90;43.80;;;;;;5108100;28;20028;-47
2022/04/20 10:49:17;;;;;;;4.93;3.38;;;16.90;43.60;;;;;;5089072;28;20036;-50
2022/04/20 10:51:49;;;;;;;7.00;4.03;;;16.90;45.50;;;;;;5074140;28;20024;-47
2022/04/20 10:54:36;;;;;;;8.73;4.45;;;16.90;44.10;;;;;;5091603;28;20038;-48
2022/04/20 10:57:07;;;;;;;7.65;4.10;;;16.80;45.90;;;;;;5083857;28;20055;-51
2022/04/20 10:59:35;;;;;;;8.95;4.15;;;16.70;47.00;;;;;;5095638;28;20271;-46
2022/04/20 11:02:27;;;;;;;8.30;3.72;;;16.60;44.00;;;;;;5069818;28;20131;-47
2022/04/20 11:05:15;;;;;;;5.18;4.15;;;16.50;46.80;;;;;;5105310;28;20172;-48
2022/04/20 11:07:59;;;;;;;5.15;3.70;;;16.70;47.70;;;;;;5121464;27;20027;-47
2022/04/20 11:10:26;;;;;;;5.03;4.50;;;16.90;48.90;;;;;;5111577;27;20050;-49
2022/04/20 11:19:18;;;;;;;6.97;5.07;;;16.90;48.40;;;;;;5103500;28;20088;-52
2022/04/20 11:22:06;;;;;;;6.15;5.25;;;16.90;48.90;;;;;;5112294;27;20112;-48
2022/04/20 11:24:33;;;;;;;7.82;5.60;;;16.60;48.40;;;;;;5075388;28;20028;-46
2022/04/20 11:27:00;;;;;;;6.78;5.65;;;16.40;52.40;;;;;;5114819;27;20022;-48
2022/04/20 11:29:33;;;;;;;12.98;5.97;;;16.30;55.10;;;;;;5132410;27;20332;-47
2022/04/20 11:32:22;;;;;;;6.53;5.82;;;16.40;53.90;;;;;;5130715;27;20418;-46
2022/04/20 11:35:03;;;;;;;7.75;5.55;;;16.40;52.90;;;;;;5088689;27;20035;-46
2022/04/20 11:37:28;;;;;;;6.47;5.78;;;16.10;52.30;;;;;;5110692;27;20517;-47
2022/04/20 11:39:56;;;;;;;10.85;5.90;;;16.00;52.40;;;;;;5123188;27;20035;-49
2022/04/20 11:42:25;;;;;;;8.18;5.65;;;15.90;51.80;;;;;;5126173;27;20029;-52
2022/04/20 11:44:52;;;;;;;9.52;6.10;;;15.80;54.50;;;;;;5085519;27;20024;-46
2022/04/20 11:47:22;;;;;;;10.07;5.50;;;15.50;55.60;;;;;;5076015;28;20031;-46
2022/04/20 11:49:49;;;;;;;8.57;5.88;;;15.30;54.10;;;;;;5110351;28;20028;-48
2022/04/20 11:52:17;;;;;;;6.47;4.60;;;14.90;53.80;;;;;;5092074;28;20036;-49
2022/04/20 11:54:53;;;;;;;8.07;4.90;;;14.80;54.80;;;;;;5107866;27;20031;-46
2022/04/20 11:57:19;;;;;;;7.35;5.40;;;14.90;54.40;;;;;;5068922;28;20036;-47
2022/04/20 12:00:04;;;;;;;6.40;5.03;;;14.90;54.20;;;;;;5116245;27;20031;-50
2022/04/20 12:02:36;;;;;;;9.60;4.88;;;14.80;54.20;;;;;;5083740;27;20028;-50
2022/04/20 12:05:10;;;;;;;7.93;4.47;;;14.90;56.50;;;;;;5086155;28;20055;-49
2022/04/20 12:07:37;;;;;;;6.15;4.72;;;15.00;55.90;;;;;;5078921;28;20044;-49
2022/04/20 12:10:08;;;;;;;8.48;4.57;;;15.10;54.10;;;;;;5055605;28;20035;-48
2022/04/20 12:12:35;;;;;;;9.30;6.03;;;15.10;54.10;;;;;;5077289;28;21211;-47
2022/04/20 12:15:08;;;;;;;8.20;4.85;;;15.20;53.10;;;;;;5088405;28;20054;-47
2022/04/20 12:17:39;;;;;;;15.15;5.63;;;15.10;53.40;;;;;;5089303;28;20461;-50
2022/04/20 12:20:11;;;;;;;8.40;4.80;;;14.90;53.50;;;;;;5070197;28;20319;-49
2022/04/20 12:22:40;;;;;;;6.78;4.97;;;14.80;52.70;;;;;;5089918;28;20405;-45
2022/04/20 12:25:11;;;;;;;9.43;4.93;;;14.80;52.40;;;;;;5078230;28;20048;-50
2022/04/20 12:28:35;;;;;;;6.95;4.20;;;14.90;53.10;;;;;;5071991;28;20032;-47
2022/04/20 12:30:45;;;;;;;6.80;4.07;;;14.80;52.80;;;;;;5073502;28;20413;-47
2022/04/20 12:33:24;;;;;;;;;;;14.60;51.80;;;;;;5074234;28;20036;-48
2022/04/20 12:36:03;;;;;;;8.50;4.88;;;14.70;53.10;;;;;;5084710;28;19908;-47
2022/04/20 12:38:40;;;;;;;6.65;4.95;;;14.80;54.90;;;;;;5084648;28;20103;-48
2022/04/20 12:41:07;;;;;;;13.27;5.85;;;14.60;54.40;;;;;;5086230;28;20036;-46
2022/04/20 12:43:33;;;;;;;6.65;5.22;;;14.60;52.40;;;;;;5078954;28;20500;-44
2022/04/20 12:46:16;;;;;;;22.27;6.00;;;14.40;54.00;;;;;;5085526;28;20424;-46
2022/04/20 12:48:47;;;;;;;12.80;4.47;;;14.60;56.10;;;;;;5085388;28;20048;-46
2022/04/20 12:51:24;;;;;;;15.07;4.50;;;14.60;53.10;;;;;;5058402;28;20438;-48
2022/04/20 12:53:54;;;;;;;7.97;4.10;;;14.40;54.50;;;;;;5071565;28;20046;-46
2022/04/20 13:02:05;;;;;;;6.47;5.57;;;14.30;54.50;;;;;;5080708;28;20134;-46
2022/04/20 13:04:32;;;;;;;10.25;4.85;;;14.20;52.80;;;;;;5091831;28;20047;-45
2022/04/20 13:06:59;;;;;;;7.65;5.32;;;14.20;54.40;;;;;;5084587;28;20436;-48
2022/04/20 13:09:28;;;;;;;5.90;5.28;;;14.20;54.80;;;;;;5105146;28;20401;-46
2022/04/20 13:12:01;;;;;;;9.98;5.78;;;14.20;55.70;;;;;;5084059;28;20028;-47
2022/04/20 13:14:26;;;;;;;13.30;6.40;;;14.10;57.40;;;;;;5103311;28;20023;-50
2022/04/20 13:16:53;;;;;;;15.85;6.10;;;14.10;59.30;;;;;;5091599;28;20042;-46
2022/04/20 13:19:21;;;;;;;11.13;5.88;;;14.30;59.30;;;;;;5111610;28;20368;-48
2022/04/20 13:21:49;;;;;;;6.93;5.97;;;14.10;57.70;;;;;;5097095;28;20028;-47
2022/04/20 13:29:54;;;;;;;8.50;6.57;;;13.90;57.00;;;;;;5109367;28;20722;-50
2022/04/20 13:32:25;;;;;;;19.88;6.97;;;13.90;58.00;;;;;;5093565;28;20020;-49
2022/04/20 13:34:52;;;;;;;11.52;6.57;;;13.90;57.20;;;;;;5094341;28;20581;-47
2022/04/20 13:37:18;;;;;;;8.02;5.65;;;13.70;58.40;;;;;;5087796;28;20051;-47
2022/04/20 13:39:45;;;;;;;14.93;5.68;;;13.70;58.70;;;;;;5092271;28;20019;-51
2022/04/20 13:42:14;;;;;;;8.90;5.63;;;13.70;59.90;;;;;;5083242;28;20032;-50
2022/04/20 13:44:42;;;;;;;7.40;5.18;;;13.70;60.60;;;;;;5105257;28;20318;-48
2022/04/20 13:47:10;;;;;;;8.75;5.18;;;13.60;58.10;;;;;;5099882;28;20020;-51